createdAt,value
2023-03-20T00:00:41.314Z,52.65
2023-03-20T00:03:55.967Z,53.03
2023-03-20T00:07:10.092Z,54.13
2023-03-20T00:10:23.978Z,51.40
2023-03-20T00:13:36.082Z,54.43
2023-03-20T00:16:51.107Z,48.93
2023-03-20T00:20:03.376Z,62.60
2023-03-20T00:23:15.392Z,58.30
2023-03-20T00:26:30.105Z,60.38
2023-03-20T00:29:42.671Z,55.10
2023-03-20T00:32:55.244Z,60.00
2023-03-20T00:36:07.733Z,57.75
2023-03-20T00:39:19.984Z,59.48
2023-03-20T00:42:32.239Z,60.10
2023-03-20T00:45:44.403Z,61.83
2023-03-20T00:48:57.034Z,54.98
2023-03-20T00:52:12.902Z,60.80
2023-03-20T00:55:28.192Z,55.20
2023-03-20T00:58:40.416Z,53.10
2023-03-20T01:01:52.959Z,53.50
2023-03-20T01:05:05.917Z,51.03
2023-03-20T01:08:27.619Z,46.85
2023-03-20T01:11:40.291Z,53.00
2023-03-20T01:14:56.801Z,49.68
2023-03-20T01:18:09.095Z,49.13
2023-03-20T01:21:21.492Z,48.45
2023-03-20T01:24:33.543Z,52.30
2023-03-20T01:27:48.474Z,52.50
2023-03-20T01:31:00.801Z,52.00
2023-03-20T01:34:16.566Z,51.25
2023-03-20T01:37:33.381Z,49.95
2023-03-20T01:40:55.476Z,53.65
2023-03-20T01:44:16.302Z,53.58
2023-03-20T01:47:30.608Z,51.30
2023-03-20T01:50:45.352Z,54.03
2023-03-20T01:54:03.208Z,54.33
2023-03-20T01:57:21.697Z,50.03
2023-03-20T02:00:34.486Z,51.60
2023-03-20T02:03:52.003Z,54.25
2023-03-20T02:07:06.586Z,49.90
2023-03-20T02:10:25.229Z,53.63
2023-03-20T02:13:45.693Z,58.48
2023-03-20T02:16:59.172Z,51.45
2023-03-20T02:20:22.332Z,54.35
2023-03-20T02:24:21.426Z,54.60
2023-03-20T02:27:43.140Z,60.60
2023-03-20T02:31:21.507Z,56.23
2023-03-20T02:35:31.649Z,64.33
2023-03-20T02:39:06.714Z,61.00
2023-03-20T02:42:26.712Z,55.48
2023-03-20T02:45:45.922Z,60.15
2023-03-20T02:49:05.118Z,54.38
2023-03-20T02:52:23.062Z,55.05
2023-03-20T02:55:42.026Z,58.08
2023-03-20T02:59:00.678Z,59.33
2023-03-20T03:02:17.390Z,57.95
2023-03-20T03:05:35.226Z,53.55
2023-03-20T03:08:52.616Z,55.33
2023-03-20T03:12:09.683Z,56.58
2023-03-20T03:15:27.735Z,56.88
2023-03-20T03:18:44.129Z,55.68
2023-03-20T03:21:56.913Z,54.23
2023-03-20T03:25:11.236Z,52.10
2023-03-20T03:28:30.509Z,54.88
2023-03-20T03:31:44.015Z,57.28
2023-03-20T03:34:56.741Z,47.13
2023-03-20T03:38:14.504Z,47.68
2023-03-20T03:41:33.439Z,51.35
2023-03-20T03:44:53.216Z,51.25
2023-03-20T03:48:10.706Z,54.50
2023-03-20T03:51:27.666Z,48.70
2023-03-20T03:54:48.762Z,49.53
2023-03-20T03:58:16.291Z,44.63
2023-03-20T04:01:35.036Z,59.00
2023-03-20T04:04:52.509Z,57.93
2023-03-20T04:08:08.561Z,47.23
2023-03-20T04:11:25.320Z,51.08
2023-03-20T04:14:37.623Z,46.13
2023-03-20T04:17:50.383Z,48.73
2023-03-20T04:21:03.315Z,47.08
2023-03-20T04:24:16.150Z,42.45
2023-03-20T04:27:28.864Z,45.20
2023-03-20T04:30:41.478Z,42.08
2023-03-20T04:33:53.667Z,42.68
2023-03-20T04:37:14.173Z,40.25
2023-03-20T04:40:31.699Z,45.35
2023-03-20T04:43:44.551Z,46.38
2023-03-20T04:46:56.690Z,46.65
2023-03-20T04:50:11.897Z,41.78
2023-03-20T04:53:27.077Z,36.28
2023-03-20T04:56:39.426Z,44.33
2023-03-20T04:59:53.912Z,40.98
2023-03-20T05:03:06.378Z,38.48
2023-03-20T05:06:18.974Z,41.33
2023-03-20T05:09:32.134Z,39.75
2023-03-20T05:12:47.978Z,39.35
2023-03-20T05:16:18.924Z,36.48
2023-03-20T05:19:33.094Z,36.13
2023-03-20T05:22:47.832Z,36.33
2023-03-20T05:26:18.336Z,31.30
2023-03-20T05:29:41.556Z,29.28
2023-03-20T05:32:58.172Z,29.13
2023-03-20T05:36:16.341Z,30.63
2023-03-20T05:39:42.808Z,34.93
2023-03-20T05:42:59.978Z,26.93
2023-03-20T05:46:14.914Z,29.03
2023-03-20T05:49:34.976Z,30.28
2023-03-20T05:52:58.432Z,30.68
2023-03-20T05:56:16.735Z,27.68
2023-03-20T05:59:30.954Z,27.18
2023-03-20T06:02:48.477Z,31.70
2023-03-20T06:06:13.518Z,30.88
2023-03-20T06:09:26.575Z,34.25
2023-03-20T06:12:39.030Z,26.65
2023-03-20T06:15:51.772Z,30.20
2023-03-20T06:19:04.162Z,36.40
2023-03-20T06:22:16.735Z,27.00
2023-03-20T06:25:28.937Z,28.83
2023-03-20T06:28:41.023Z,25.88
2023-03-20T06:31:53.700Z,28.70
2023-03-20T06:35:11.940Z,27.85
2023-03-20T06:38:25.071Z,46.83
2023-03-20T06:41:37.957Z,34.28
2023-03-20T06:44:52.034Z,28.75
2023-03-20T06:48:06.370Z,29.65
2023-03-20T06:51:18.579Z,32.88
2023-03-20T06:54:32.983Z,29.90
2023-03-20T06:57:46.002Z,30.53
2023-03-20T07:01:00.205Z,32.05
2023-03-20T07:04:12.964Z,29.15
2023-03-20T07:07:26.920Z,37.25
2023-03-20T07:10:39.410Z,34.60
2023-03-20T07:13:52.044Z,32.18
2023-03-20T07:17:06.540Z,34.10
2023-03-20T07:20:20.770Z,28.30
2023-03-20T07:23:34.683Z,37.08
2023-03-20T07:26:47.286Z,26.75
2023-03-20T07:29:59.844Z,28.48
2023-03-20T07:33:12.179Z,31.83
2023-03-20T07:36:25.477Z,29.68
2023-03-20T07:39:37.752Z,25.88
2023-03-20T07:43:10.472Z,34.40
2023-03-20T07:46:41.201Z,26.43
2023-03-20T07:49:53.695Z,29.25
2023-03-20T07:53:06.066Z,27.18
2023-03-20T07:56:19.079Z,33.60
2023-03-20T07:59:31.143Z,22.25
2023-03-20T08:02:43.693Z,26.08
2023-03-20T08:05:56.269Z,23.93
2023-03-20T08:09:09.283Z,24.38
2023-03-20T08:12:21.601Z,25.43
2023-03-20T08:15:33.858Z,23.25
2023-03-20T08:18:46.720Z,28.50
2023-03-20T08:21:58.865Z,26.95
2023-03-20T08:25:13.156Z,27.80
2023-03-20T08:28:44.110Z,23.45
2023-03-20T08:31:40.747Z,26.83
2023-03-20T08:34:52.804Z,24.15
2023-03-20T08:38:05.114Z,29.03
2023-03-20T08:41:17.204Z,29.50
2023-03-20T08:44:29.462Z,30.55
2023-03-20T08:47:41.724Z,25.45
2023-03-20T08:50:53.931Z,24.75
2023-03-20T08:54:06.076Z,28.08
2023-03-20T08:57:20.792Z,30.08
2023-03-20T09:00:33.400Z,30.08
2023-03-20T09:03:45.696Z,26.55
2023-03-20T09:07:01.005Z,28.05
2023-03-20T09:10:16.094Z,28.20
2023-03-20T09:13:28.402Z,28.10
2023-03-20T09:16:40.574Z,29.13
2023-03-20T09:19:52.829Z,28.25
2023-03-20T09:23:05.506Z,35.23
2023-03-20T09:26:33.676Z,29.93
2023-03-20T09:29:46.755Z,26.63
2023-03-20T09:32:59.462Z,25.75
2023-03-20T09:36:31.073Z,24.80
2023-03-20T09:39:44.130Z,17.80
2023-03-20T09:43:04.344Z,22.35
2023-03-20T09:46:27.898Z,20.20
2023-03-20T09:49:52.860Z,21.75
2023-03-20T09:53:14.767Z,21.63
2023-03-20T09:56:31.822Z,37.20
2023-03-20T09:59:44.453Z,25.95
2023-03-20T10:03:01.084Z,25.20
2023-03-20T10:06:18.069Z,26.65
2023-03-20T10:13:02.425Z,31.53
2023-03-20T10:16:21.753Z,25.25
2023-03-20T10:19:37.197Z,26.68
2023-03-20T10:22:53.129Z,24.93
2023-03-20T10:26:10.503Z,23.70
2023-03-20T10:29:31.795Z,20.52
2023-03-20T10:32:49.405Z,23.63
2023-03-20T10:36:12.447Z,22.30
2023-03-20T10:39:34.032Z,23.08
2023-03-20T10:42:51.448Z,39.33
2023-03-20T10:46:10.534Z,27.78
2023-03-20T10:49:29.135Z,28.55
2023-03-20T10:52:45.060Z,24.70
2023-03-20T10:55:59.986Z,22.03
2023-03-20T10:59:18.481Z,26.78
2023-03-20T11:02:34.737Z,22.30
2023-03-20T11:06:02.208Z,25.85
2023-03-20T11:09:02.045Z,23.83
2023-03-20T11:12:23.978Z,20.45
2023-03-20T11:15:39.581Z,21.25
2023-03-20T11:18:53.959Z,22.43
2023-03-20T11:22:13.022Z,22.83
2023-03-20T11:25:39.569Z,23.23
2023-03-20T11:28:59.503Z,24.40
2023-03-20T11:32:24.428Z,21.55
2023-03-20T11:35:37.871Z,24.35
2023-03-20T11:38:54.320Z,21.88
2023-03-20T11:42:08.415Z,21.18
2023-03-20T11:45:25.847Z,25.45
2023-03-20T11:48:47.010Z,25.15
2023-03-20T11:52:00.700Z,24.35
2023-03-20T11:55:28.587Z,23.60
2023-03-20T11:58:43.436Z,22.28
2023-03-20T12:01:59.138Z,28.53
2023-03-20T12:05:33.522Z,27.33
2023-03-20T12:08:50.175Z,26.35
2023-03-20T12:12:05.763Z,26.50
2023-03-20T12:15:26.494Z,21.10
2023-03-20T12:18:43.083Z,25.05
2023-03-20T12:22:03.224Z,24.28
2023-03-20T12:25:25.823Z,21.63
2023-03-20T12:28:42.892Z,21.28
2023-03-20T12:32:00.541Z,25.40
2023-03-20T12:35:17.356Z,22.90
2023-03-20T12:41:57.230Z,25.23
2023-03-20T12:45:16.034Z,21.53
2023-03-20T12:48:49.814Z,17.20
2023-03-20T12:52:11.600Z,18.85
2023-03-20T12:55:47.834Z,16.45
2023-03-20T12:59:05.064Z,17.33
2023-03-20T13:02:30.784Z,16.58
2023-03-20T13:05:53.916Z,19.83
2023-03-20T13:09:26.631Z,15.33
2023-03-20T13:12:51.750Z,17.53
2023-03-20T13:16:16.121Z,14.78
2023-03-20T13:19:36.547Z,20.35
2023-03-20T13:22:59.249Z,17.03
2023-03-20T13:26:32.669Z,16.23
2023-03-20T13:29:52.696Z,18.03
2023-03-20T13:33:12.944Z,14.85
2023-03-20T13:36:40.746Z,15.90
2023-03-20T13:40:02.218Z,15.35
2023-03-20T13:43:25.663Z,13.33
2023-03-20T13:46:43.826Z,15.73
2023-03-20T13:50:03.796Z,16.75
2023-03-20T13:53:26.158Z,17.13
2023-03-20T13:56:47.580Z,19.20
2023-03-20T14:00:12.593Z,21.70
2023-03-20T14:03:32.147Z,23.73
2023-03-20T14:06:59.176Z,21.45
2023-03-20T14:10:46.786Z,23.53
2023-03-20T14:14:02.747Z,17.95
2023-03-20T14:17:27.836Z,18.60
2023-03-20T14:20:44.234Z,19.98
2023-03-20T14:24:04.956Z,18.35
2023-03-20T14:27:42.842Z,14.78
2023-03-20T14:30:51.717Z,18.08
2023-03-20T14:34:16.332Z,16.93
2023-03-20T14:37:53.346Z,16.78
2023-03-20T14:41:12.870Z,16.03
2023-03-20T14:44:38.770Z,18.70
2023-03-20T14:47:58.242Z,15.70
2023-03-20T14:51:32.286Z,18.40
2023-03-20T14:54:46.319Z,20.18
2023-03-20T14:57:59.147Z,18.58
2023-03-20T15:01:14.081Z,20.95
2023-03-20T15:04:43.882Z,21.68
2023-03-20T15:07:56.128Z,26.33
2023-03-20T15:11:13.567Z,27.25
2023-03-20T15:14:30.689Z,24.98
2023-03-20T15:17:47.907Z,32.08
2023-03-20T15:21:01.950Z,34.35
2023-03-20T15:24:23.152Z,29.35
2023-03-20T15:27:37.307Z,33.20
2023-03-20T15:30:53.652Z,37.03
2023-03-20T15:34:08.781Z,24.40
2023-03-20T15:37:25.890Z,30.93
2023-03-20T15:40:50.516Z,36.40
2023-03-20T15:43:56.813Z,25.53
2023-03-20T15:47:18.428Z,27.18
2023-03-20T15:50:30.743Z,38.33
2023-03-20T15:53:46.257Z,28.78
2023-03-20T15:57:02.430Z,35.03
2023-03-20T16:00:22.094Z,33.77
2023-03-20T16:03:38.343Z,34.53
2023-03-20T16:07:00.033Z,35.30
2023-03-20T16:10:22.975Z,25.95
2023-03-20T16:13:40.024Z,32.23
2023-03-20T16:16:56.429Z,30.63
2023-03-20T16:20:10.710Z,34.70
2023-03-20T16:23:34.019Z,31.95
2023-03-20T16:26:49.905Z,26.85
2023-03-20T16:30:03.114Z,28.53
2023-03-20T16:33:20.533Z,24.48
2023-03-20T16:36:39.026Z,27.03
2023-03-20T16:39:51.068Z,29.50
2023-03-20T16:43:05.592Z,23.93
2023-03-20T16:46:23.593Z,29.00
2023-03-20T16:50:23.645Z,25.08
2023-03-20T16:53:44.814Z,30.00
2023-03-20T16:57:04.038Z,23.85
2023-03-20T17:00:32.851Z,31.00
2023-03-20T17:03:52.866Z,27.23
2023-03-20T17:07:10.027Z,29.05
2023-03-20T17:10:30.813Z,29.23
2023-03-20T17:13:43.189Z,26.18
2023-03-20T17:16:59.536Z,28.53
2023-03-20T17:20:16.819Z,22.83
2023-03-20T17:23:30.038Z,29.73
2023-03-20T17:26:43.000Z,28.75
2023-03-20T17:29:56.307Z,27.63
2023-03-20T17:33:13.819Z,27.48
2023-03-20T17:36:30.656Z,28.95
2023-03-20T17:39:42.948Z,30.03
2023-03-20T17:42:55.667Z,30.33
2023-03-20T17:46:08.330Z,34.35
2023-03-20T17:49:25.115Z,30.73
2023-03-20T17:52:37.211Z,26.78
2023-03-20T17:55:49.484Z,33.58
2023-03-20T17:59:01.790Z,28.15
2023-03-20T18:02:14.861Z,35.13
2023-03-20T18:05:28.644Z,31.58
2023-03-20T18:08:40.968Z,36.40
2023-03-20T18:11:52.995Z,37.30
2023-03-20T18:15:05.680Z,38.18
2023-03-20T18:18:17.740Z,45.25
2023-03-20T18:21:30.087Z,34.80
2023-03-20T18:24:45.372Z,35.03
2023-03-20T18:27:57.848Z,39.53
2023-03-20T18:31:10.602Z,44.35
2023-03-20T18:34:23.321Z,39.30
2023-03-20T18:37:35.780Z,44.15
2023-03-20T18:40:48.224Z,41.60
2023-03-20T18:44:00.410Z,38.20
2023-03-20T18:47:13.580Z,43.08
2023-03-20T18:50:34.476Z,42.48
2023-03-20T18:53:47.160Z,36.73
2023-03-20T18:57:00.909Z,35.90
2023-03-20T19:00:25.608Z,36.28
2023-03-20T19:03:39.501Z,38.03
2023-03-20T19:06:51.790Z,32.70
2023-03-20T19:10:04.065Z,35.10
2023-03-20T19:13:18.824Z,32.93
2023-03-20T19:16:35.146Z,32.03
2023-03-20T19:19:47.717Z,44.45
2023-03-20T19:23:01.152Z,36.18
2023-03-20T19:26:21.917Z,30.50
2023-03-20T19:29:34.201Z,28.08
2023-03-20T19:32:46.418Z,32.03
2023-03-20T19:36:03.340Z,29.85
2023-03-20T19:39:16.876Z,34.80
2023-03-20T19:43:00.865Z,40.28
2023-03-20T19:45:45.698Z,42.93
2023-03-20T19:48:57.997Z,42.23
2023-03-20T19:52:10.880Z,37.23
2023-03-20T19:55:23.518Z,41.80
2023-03-20T19:58:35.748Z,45.30
2023-03-20T20:01:47.960Z,45.45
2023-03-20T20:05:00.573Z,44.15
2023-03-20T20:08:28.365Z,43.35
2023-03-20T20:11:29.290Z,47.30
2023-03-20T20:14:41.668Z,47.18
2023-03-20T20:17:54.993Z,43.20
2023-03-20T20:24:22.040Z,49.80
2023-03-20T20:27:34.716Z,51.53
2023-03-20T20:30:47.774Z,52.93
2023-03-20T20:34:51.096Z,57.70
2023-03-20T20:40:33.413Z,61.00
2023-03-20T20:44:14.476Z,54.55
2023-03-20T20:47:00.588Z,55.13
2023-03-20T20:50:15.194Z,59.60
2023-03-20T20:53:27.230Z,67.05
2023-03-20T20:56:39.417Z,69.10
2023-03-20T20:59:53.671Z,70.80
2023-03-20T21:03:06.082Z,66.10
2023-03-20T21:06:18.305Z,75.55
2023-03-20T21:09:30.485Z,72.53
2023-03-20T21:12:58.686Z,80.90
2023-03-20T21:16:06.438Z,80.85
2023-03-20T21:19:19.423Z,84.65
2023-03-20T21:22:34.112Z,92.00
2023-03-20T21:25:47.748Z,86.88
2023-03-20T21:29:00.628Z,90.20
2023-03-20T21:32:13.334Z,100.63
2023-03-20T21:35:26.590Z,91.65
2023-03-20T21:41:54.653Z,90.03
2023-03-20T21:49:23.977Z,91.15
2023-03-20T21:52:37.469Z,98.90
2023-03-20T21:55:40.995Z,101.00
2023-03-20T22:08:27.886Z,88.90
2023-03-20T22:15:03.843Z,94.58
2023-03-20T22:18:05.719Z,87.08
2023-03-20T22:27:56.620Z,92.58
2023-03-20T22:31:19.357Z,91.00
2023-03-20T22:37:52.550Z,84.57
2023-03-20T22:41:18.350Z,83.55
2023-03-20T22:44:34.014Z,78.33
2023-03-20T22:46:51.171Z,77.30
2023-03-20T22:50:03.564Z,79.90
2023-03-20T22:53:15.780Z,65.68
2023-03-20T22:56:28.358Z,67.05
2023-03-20T22:59:40.589Z,59.73
2023-03-20T23:02:54.934Z,50.00
2023-03-20T23:06:14.568Z,53.88
2023-03-20T23:09:27.230Z,47.25
2023-03-20T23:12:39.633Z,47.73
2023-03-20T23:15:52.980Z,43.45
2023-03-20T23:19:05.344Z,39.60
2023-03-20T23:22:17.749Z,39.40
2023-03-20T23:25:38.900Z,40.10
2023-03-20T23:28:46.345Z,37.73
2023-03-20T23:31:58.804Z,39.85
2023-03-20T23:35:13.123Z,35.53
2023-03-20T23:38:25.187Z,36.93
2023-03-20T23:42:03.958Z,33.25
2023-03-20T23:44:56.510Z,33.78
2023-03-20T23:48:05.759Z,31.23
2023-03-20T23:51:17.858Z,30.63
2023-03-20T23:54:29.885Z,34.38
2023-03-20T23:57:41.899Z,30.63
